• Join FlightAware (Why Join?)
  • Login
  • US Flag 
04:09PM EDT


 

Airport Tracker/Info


-or-


 

Live Flight TrackerFlight Track Log ✈ KAP644 ✈ 05-Jun-2013 ✈ KBOS - KMVY

Flight Track Log - Related Links

Times and Time Zones

All times are in EDT time to prevent confusion due to time zone crossing. See the KAP644 flight status page for this flight to view local times or setup timezone preferences in your user account.

Time Position Orientation Groundspeed Altitude Reporting Facility
EDT Latitude Longitude Course Direction KTS MPH feet Rate Location/Type
12:16PM 42.3333 -70.9333 114° Southeast 125 144 1,500  Level KA90
12:17PM 42.3167 -70.8833 114° Southeast 128 147 2,200 600 Climbing KA90
12:18PM 42.3000 -70.8667 144° Southeast 129 148 2,800 540 Climbing KA90
12:19PM 42.2500 -70.8500 166° South 135 155 3,300 300 Climbing KA90
12:20PM 42.2167 -70.8333 160° South 150 173 3,400  Climbing KA90
12:21PM 42.1667 -70.8333 180° South 160 184 3,400  Level KA90
12:22PM 42.1333 -70.8000 143° Southeast 164 189 3,500  Climbing KA90
12:23PM 42.1000 -70.7667 143° Southeast 165 190 3,400  Descending KA90
12:24PM 42.0500 -70.7333 154° Southeast 166 191 3,600  Climbing KA90
12:25PM 42.0000 -70.7333 180° South 172 198 3,400 -60 Descending KA90
12:26PM 41.9667 -70.7167 160° South 165 190 3,500  Climbing KA90
12:27PM 41.9167 -70.7000 166° South 164 189 3,500  Level KA90
12:28PM 41.8667 -70.7000 180° South 168 193 3,500  Level KA90
12:30PM 41.7942 -70.7181 191° South  Level FlightAware Approximate
12:37PM 41.5369 -70.6510 164° South  Level Estimated
12:38PM 41.5000 -70.6417 169° South  Level FlightAware Approximate
12:39PM 41.4633 -70.6321 163° South  Level Estimated
12:40PM 41.4274 -70.6177 163° South  Level FlightAware Approximate
12:41PM 41.3934 -70.6139 163° South  Level Estimated
12:42PM 41.3934 -70.6139 163° South  Level Estimated
12:43PM 41.3934 -70.6139 163° South  Level Estimated
12:44PM 41.3934 -70.6139 163° South  Level Estimated
12:45PM 41.3934 -70.6139 163° South  Level Estimated
12:46PM 41.3934 -70.6139 163° South  Level Estimated
12:47PM 41.3934 -70.6139 163° South  Level Estimated
12:48PM 41.3934 -70.6139 163° South  Level Estimated
12:49PM 41.3934 -70.6139 163° South  Level Estimated
12:50PM 41.3934 -70.6139 163° South  Level Estimated
12:51PM 41.3934 -70.6139 163° South  Level Estimated
12:52PM 41.3934 -70.6139 163° South  Level Estimated
12:53PM 41.3934 -70.6139 163° South  Level Estimated
12:54PM 41.3934 -70.6139 163° South  Level Estimated
12:55PM 41.3934 -70.6139 163° South  Level Estimated
12:56PM 41.3934 -70.6139 163° South  Level Estimated
12:57PM 41.3934 -70.6139 163° South  Level Estimated
12:58PM 41.3934 -70.6139 163° South  Level Estimated
12:59PM 41.3934 -70.6139 163° South  Level Estimated